createdAt,value
2022-10-05T00:01:24.114Z,3.50
2022-10-05T00:03:52.850Z,3.70
2022-10-05T00:06:19.452Z,4.15
2022-10-05T00:08:46.131Z,4.10
2022-10-05T00:11:14.434Z,3.78
2022-10-05T00:13:41.773Z,4.78
2022-10-05T00:16:11.175Z,4.25
2022-10-05T00:18:38.623Z,3.80
2022-10-05T00:21:20.565Z,4.13
2022-10-05T00:23:48.341Z,3.80
2022-10-05T00:26:21.708Z,4.07
2022-10-05T00:28:48.612Z,4.35
2022-10-05T00:31:19.744Z,4.30
2022-10-05T00:33:47.078Z,4.07
2022-10-05T00:36:13.935Z,3.85
2022-10-05T00:38:41.280Z,4.10
2022-10-05T00:41:51.404Z,4.10
2022-10-05T00:44:33.165Z,4.40
2022-10-05T00:47:17.770Z,4.18
2022-10-05T00:49:56.544Z,4.00
2022-10-05T00:52:30.072Z,4.30
2022-10-05T00:55:10.864Z,4.30
2022-10-05T00:58:20.702Z,4.50
2022-10-05T01:01:02.219Z,4.32
2022-10-05T01:03:51.243Z,4.80
2022-10-05T01:06:56.270Z,4.57
2022-10-05T01:09:31.890Z,4.25
2022-10-05T01:12:21.124Z,4.78
2022-10-05T01:15:14.988Z,4.95
2022-10-05T01:18:10.824Z,5.60
2022-10-05T01:20:37.508Z,5.10
2022-10-05T01:23:28.205Z,4.57
2022-10-05T01:26:24.081Z,4.60
2022-10-05T01:28:56.326Z,5.60
2022-10-05T01:31:40.301Z,5.13
2022-10-05T01:34:25.314Z,5.20
2022-10-05T01:36:58.371Z,4.97
2022-10-05T01:39:58.633Z,5.55
2022-10-05T01:42:40.329Z,4.90
2022-10-05T01:45:57.363Z,4.80
2022-10-05T01:48:35.724Z,5.07
2022-10-05T01:51:11.400Z,4.82
2022-10-05T01:53:59.396Z,4.93
2022-10-05T01:56:34.999Z,4.93
2022-10-05T01:59:16.357Z,4.55
2022-10-05T02:02:03.759Z,5.05
2022-10-05T02:05:00.987Z,4.95
2022-10-05T02:07:34.177Z,4.78
2022-10-05T02:10:36.435Z,5.07
2022-10-05T02:13:48.675Z,4.85
2022-10-05T02:16:36.377Z,4.65
2022-10-05T02:19:15.116Z,5.35
2022-10-05T02:21:46.565Z,5.00
2022-10-05T02:24:21.576Z,5.25
2022-10-05T02:26:51.825Z,5.00
2022-10-05T02:29:22.297Z,5.22
2022-10-05T02:32:00.180Z,5.45
2022-10-05T02:34:41.172Z,5.32
2022-10-05T02:37:24.978Z,5.70
2022-10-05T02:40:13.418Z,5.30
2022-10-05T02:43:00.957Z,4.60
2022-10-05T02:45:33.613Z,5.47
2022-10-05T02:48:17.439Z,5.03
2022-10-05T02:51:01.929Z,5.20
2022-10-05T02:53:47.322Z,5.38
2022-10-05T02:56:29.802Z,5.07
2022-10-05T02:59:21.317Z,6.28
2022-10-05T03:01:52.476Z,5.63
2022-10-05T03:04:24.944Z,5.38
2022-10-05T03:07:02.164Z,5.50
2022-10-05T03:09:36.233Z,5.57
2022-10-05T03:12:21.603Z,5.75
2022-10-05T03:15:06.717Z,5.30
2022-10-05T03:17:50.022Z,5.65
2022-10-05T03:20:24.447Z,5.60
2022-10-05T03:22:53.235Z,5.43
2022-10-05T03:25:28.774Z,5.65
2022-10-05T03:27:55.386Z,5.97
2022-10-05T03:30:25.829Z,5.53
2022-10-05T03:33:11.322Z,5.75
2022-10-05T03:35:56.472Z,5.35
2022-10-05T03:38:38.085Z,5.68
2022-10-05T03:41:17.763Z,5.93
2022-10-05T03:44:11.714Z,5.47
2022-10-05T03:47:05.641Z,5.53
2022-10-05T03:49:40.468Z,5.53
2022-10-05T03:52:15.297Z,6.43
2022-10-05T03:54:47.861Z,5.90
2022-10-05T03:57:24.402Z,5.93
2022-10-05T04:00:12.818Z,5.50
2022-10-05T04:02:54.322Z,6.25
2022-10-05T04:05:25.277Z,5.80
2022-10-05T04:08:07.991Z,5.57
2022-10-05T04:10:45.293Z,5.60
2022-10-05T04:13:18.484Z,5.68
2022-10-05T04:16:06.940Z,5.60
2022-10-05T04:18:42.594Z,5.60
2022-10-05T04:21:21.398Z,5.55
2022-10-05T04:24:43.127Z,6.00
2022-10-05T04:27:16.646Z,6.22
2022-10-05T04:29:52.096Z,5.65
2022-10-05T04:32:36.452Z,5.70
2022-10-05T04:35:18.232Z,5.90
2022-10-05T04:38:03.236Z,6.18
2022-10-05T04:40:39.138Z,6.80
2022-10-05T04:43:33.833Z,6.28
2022-10-05T04:46:19.490Z,5.85
2022-10-05T04:49:14.098Z,6.13
2022-10-05T04:51:59.406Z,5.53
2022-10-05T04:55:04.011Z,6.20
2022-10-05T04:57:57.266Z,5.60
2022-10-05T05:00:36.593Z,5.60
2022-10-05T05:03:12.351Z,5.70
2022-10-05T05:06:17.677Z,6.93
2022-10-05T05:09:22.244Z,5.72
2022-10-05T05:12:04.052Z,5.88
2022-10-05T05:14:33.294Z,5.47
2022-10-05T05:17:17.366Z,6.05
2022-10-05T05:20:42.586Z,5.53
2022-10-05T05:23:36.036Z,7.40
2022-10-05T05:26:38.976Z,5.90
2022-10-05T05:29:21.858Z,6.07
2022-10-05T05:31:54.575Z,5.80
2022-10-05T05:34:54.930Z,5.72
2022-10-05T05:37:33.395Z,5.78
2022-10-05T05:40:15.313Z,5.60
2022-10-05T05:43:00.385Z,5.68
2022-10-05T05:45:50.366Z,5.40
2022-10-05T05:48:36.782Z,5.35
2022-10-05T05:51:43.825Z,5.78
2022-10-05T05:54:16.295Z,5.57
2022-10-05T05:57:08.959Z,5.95
2022-10-05T06:00:06.212Z,5.63
2022-10-05T06:02:48.438Z,5.18
2022-10-05T06:05:21.113Z,5.38
2022-10-05T06:07:48.026Z,5.28
2022-10-05T06:10:34.851Z,5.35
2022-10-05T06:13:10.602Z,5.53
2022-10-05T06:15:50.638Z,5.60
2022-10-05T06:18:20.577Z,5.50
2022-10-05T06:20:51.512Z,5.47
2022-10-05T06:23:39.999Z,5.20
2022-10-05T06:26:18.102Z,6.25
2022-10-05T06:28:53.530Z,5.75
2022-10-05T06:32:14.954Z,5.18
2022-10-05T06:34:50.707Z,5.30
2022-10-05T06:37:40.354Z,6.10
2022-10-05T06:40:27.234Z,5.63
2022-10-05T06:43:40.656Z,6.00
2022-10-05T06:46:23.259Z,5.60
2022-10-05T06:49:04.836Z,5.57
2022-10-05T06:51:46.875Z,5.50
2022-10-05T06:54:57.882Z,5.32
2022-10-05T06:57:44.962Z,5.40
2022-10-05T07:00:18.328Z,5.65
2022-10-05T07:02:48.629Z,5.28
2022-10-05T07:05:44.960Z,4.80
2022-10-05T07:08:47.785Z,5.28
2022-10-05T07:11:48.991Z,5.35
2022-10-05T07:14:39.921Z,4.93
2022-10-05T07:17:30.735Z,4.50
2022-10-05T07:20:15.795Z,5.00
2022-10-05T07:22:50.329Z,4.40
2022-10-05T07:25:28.935Z,4.68
2022-10-05T07:28:08.000Z,4.50
2022-10-05T07:31:05.009Z,4.82
2022-10-05T07:33:46.387Z,4.07
2022-10-05T07:36:50.924Z,4.38
2022-10-05T07:39:59.467Z,4.10
2022-10-05T07:43:00.010Z,4.25
2022-10-05T07:45:51.654Z,4.20
2022-10-05T07:48:26.760Z,3.97
2022-10-05T07:51:16.164Z,3.92
2022-10-05T07:53:57.540Z,4.85
2022-10-05T07:56:34.069Z,4.25
2022-10-05T07:59:07.904Z,3.72
2022-10-05T08:01:48.800Z,3.90
2022-10-05T08:04:27.768Z,3.78
2022-10-05T08:06:59.336Z,3.55
2022-10-05T08:09:43.110Z,3.67
2022-10-05T08:12:24.821Z,3.90
2022-10-05T08:15:03.782Z,3.72
2022-10-05T08:17:55.344Z,4.22
2022-10-05T08:20:33.827Z,3.33
2022-10-05T08:23:25.181Z,4.05
2022-10-05T08:26:05.510Z,3.45
2022-10-05T08:28:59.089Z,3.45
2022-10-05T08:31:40.151Z,3.35
2022-10-05T08:34:27.840Z,3.50
2022-10-05T08:37:08.698Z,3.70
2022-10-05T08:40:04.713Z,3.28
2022-10-05T08:43:08.953Z,3.50
2022-10-05T08:45:55.462Z,2.88
2022-10-05T08:48:40.521Z,2.80
2022-10-05T08:51:23.242Z,3.03
2022-10-05T08:54:05.207Z,3.25
2022-10-05T08:56:46.016Z,3.17
2022-10-05T08:59:34.903Z,3.28
2022-10-05T09:02:20.363Z,3.70
2022-10-05T09:04:58.342Z,3.15
2022-10-05T09:07:39.192Z,3.58
2022-10-05T09:10:20.854Z,3.05
2022-10-05T09:13:04.997Z,2.90
2022-10-05T09:16:04.418Z,2.83
2022-10-05T09:18:49.889Z,3.15
2022-10-05T09:21:37.934Z,2.88
2022-10-05T09:24:13.542Z,3.08
2022-10-05T09:27:00.425Z,3.20
2022-10-05T09:29:49.047Z,3.00
2022-10-05T09:32:31.028Z,3.22
2022-10-05T09:35:16.637Z,2.97
2022-10-05T09:38:03.456Z,2.85
2022-10-05T09:41:14.690Z,2.72
2022-10-05T09:44:05.102Z,2.70
2022-10-05T09:46:47.686Z,3.08
2022-10-05T09:49:17.085Z,3.28
2022-10-05T09:52:02.028Z,2.88
2022-10-05T09:54:40.356Z,2.80
2022-10-05T09:57:15.972Z,3.30
2022-10-05T09:59:45.431Z,2.90
2022-10-05T10:02:28.359Z,2.63
2022-10-05T10:05:39.063Z,2.92
2022-10-05T10:08:38.075Z,3.03
2022-10-05T10:11:10.226Z,2.97
2022-10-05T10:14:00.184Z,3.38
2022-10-05T10:16:53.697Z,2.92
2022-10-05T10:20:05.324Z,3.97
2022-10-05T10:22:34.580Z,3.40
2022-10-05T10:25:37.979Z,2.80
2022-10-05T10:28:20.394Z,2.63
2022-10-05T10:31:16.106Z,3.38
2022-10-05T10:34:07.016Z,2.80
2022-10-05T10:36:52.456Z,2.80
2022-10-05T10:39:54.093Z,2.58
2022-10-05T10:42:49.120Z,2.90
2022-10-05T10:45:29.820Z,2.83
2022-10-05T10:48:09.073Z,2.70
2022-10-05T10:51:11.270Z,2.58
2022-10-05T10:54:05.534Z,2.58
2022-10-05T10:56:44.270Z,2.67
2022-10-05T10:59:35.816Z,2.80
2022-10-05T11:02:21.319Z,2.50
2022-10-05T11:05:18.420Z,2.95
2022-10-05T11:07:58.256Z,2.65
2022-10-05T11:10:27.562Z,2.70
2022-10-05T11:13:31.657Z,2.47
2022-10-05T11:16:19.964Z,2.72
2022-10-05T11:19:11.032Z,2.35
2022-10-05T11:22:17.181Z,2.50
2022-10-05T11:24:55.748Z,2.25
2022-10-05T11:27:57.657Z,2.33
2022-10-05T11:31:01.886Z,2.60
2022-10-05T11:33:59.876Z,2.30
2022-10-05T11:37:02.977Z,2.60
2022-10-05T11:39:40.045Z,2.58
2022-10-05T11:42:23.525Z,2.35
2022-10-05T11:45:14.491Z,2.80
2022-10-05T11:48:04.455Z,3.20
2022-10-05T11:50:32.691Z,2.60
2022-10-05T11:53:24.466Z,2.42
2022-10-05T11:56:34.874Z,2.35
2022-10-05T11:59:35.790Z,2.30
2022-10-05T12:02:32.272Z,2.20
2022-10-05T12:05:01.846Z,2.43
2022-10-05T12:07:45.686Z,2.60
2022-10-05T12:10:28.916Z,2.47
2022-10-05T12:13:08.779Z,2.42
2022-10-05T12:15:52.712Z,2.40
2022-10-05T12:18:48.926Z,2.00
2022-10-05T12:21:22.762Z,1.98
2022-10-05T12:24:01.034Z,2.30
2022-10-05T12:26:37.855Z,2.40
2022-10-05T12:29:26.188Z,1.98
2022-10-05T12:32:17.481Z,2.20
2022-10-05T12:35:03.277Z,2.33
2022-10-05T12:37:50.679Z,2.13
2022-10-05T12:40:43.590Z,2.00
2022-10-05T12:43:48.871Z,2.05
2022-10-05T12:46:40.186Z,2.03
2022-10-05T12:49:06.633Z,2.47
2022-10-05T12:51:36.130Z,2.22
2022-10-05T12:54:23.790Z,2.20
2022-10-05T12:57:13.760Z,2.05
2022-10-05T13:00:03.632Z,2.10
2022-10-05T13:03:00.175Z,2.00
2022-10-05T13:05:46.978Z,2.10
2022-10-05T13:08:36.289Z,2.00
2022-10-05T13:11:16.192Z,2.00
2022-10-05T13:14:02.470Z,3.15
2022-10-05T13:16:50.158Z,2.28
2022-10-05T13:19:37.051Z,1.95
2022-10-05T13:22:32.851Z,2.00
2022-10-05T13:25:14.278Z,1.90
2022-10-05T13:28:02.494Z,2.00
2022-10-05T13:30:29.671Z,2.05
2022-10-05T13:33:32.170Z,2.30
2022-10-05T13:36:13.674Z,2.10
2022-10-05T13:38:43.401Z,2.13
2022-10-05T13:41:34.611Z,2.42
2022-10-05T13:44:16.960Z,2.20
2022-10-05T13:47:00.016Z,2.13
2022-10-05T13:49:44.729Z,2.80
2022-10-05T13:52:42.526Z,2.22
2022-10-05T13:55:21.095Z,2.10
2022-10-05T13:58:07.668Z,2.30
2022-10-05T14:00:47.180Z,2.13
2022-10-05T14:03:40.088Z,1.90
2022-10-05T14:06:27.696Z,2.17
2022-10-05T14:08:54.525Z,1.95
2022-10-05T14:11:31.468Z,2.13
2022-10-05T14:14:13.790Z,1.98
2022-10-05T14:17:00.935Z,1.70
2022-10-05T14:19:32.428Z,2.17
2022-10-05T14:22:24.211Z,2.00
2022-10-05T14:25:02.755Z,2.00
2022-10-05T14:27:33.548Z,1.98
2022-10-05T14:30:23.714Z,2.00
2022-10-05T14:32:57.215Z,1.80
2022-10-05T14:35:29.386Z,1.95
2022-10-05T14:38:02.450Z,1.60
2022-10-05T14:40:34.275Z,1.67
2022-10-05T14:43:16.406Z,1.70
2022-10-05T14:46:01.558Z,1.50
2022-10-05T14:48:38.704Z,2.08
2022-10-05T14:51:10.844Z,1.70
2022-10-05T14:53:41.357Z,1.70
2022-10-05T14:56:51.163Z,1.45
2022-10-05T14:59:33.732Z,1.60
2022-10-05T15:02:26.889Z,1.65
2022-10-05T15:05:01.706Z,2.15
2022-10-05T15:07:34.378Z,1.60
2022-10-05T15:10:27.103Z,1.27
2022-10-05T15:13:17.438Z,1.55
2022-10-05T15:15:50.572Z,2.28
2022-10-05T15:18:31.952Z,1.70
2022-10-05T15:21:22.595Z,1.80
2022-10-05T15:24:14.991Z,1.60
2022-10-05T15:27:00.163Z,1.60
2022-10-05T15:29:55.583Z,1.40
2022-10-05T15:32:42.144Z,1.40
2022-10-05T15:35:27.318Z,1.50
2022-10-05T15:37:59.748Z,1.65
2022-10-05T15:41:05.539Z,1.92
2022-10-05T15:44:10.930Z,1.52
2022-10-05T15:46:45.177Z,1.50
2022-10-05T15:49:50.725Z,1.63
2022-10-05T15:52:29.750Z,1.50
2022-10-05T15:55:05.085Z,1.70
2022-10-05T15:57:43.895Z,1.50
2022-10-05T16:00:13.031Z,1.42
2022-10-05T16:02:55.574Z,1.70
2022-10-05T16:05:50.384Z,1.77
2022-10-05T16:08:50.576Z,1.70
2022-10-05T16:11:31.737Z,1.50
2022-10-05T16:14:22.284Z,1.88
2022-10-05T16:17:00.547Z,1.77
2022-10-05T16:19:38.136Z,1.60
2022-10-05T16:22:43.522Z,1.90
2022-10-05T16:25:13.030Z,1.73
2022-10-05T16:27:52.706Z,1.55
2022-10-05T16:30:23.005Z,1.73
2022-10-05T16:33:02.237Z,1.52
2022-10-05T16:35:43.648Z,1.80
2022-10-05T16:38:19.426Z,1.88
2022-10-05T16:41:03.741Z,1.58
2022-10-05T16:43:49.596Z,1.60
2022-10-05T16:46:35.106Z,2.35
2022-10-05T16:49:44.503Z,1.55
2022-10-05T16:52:16.298Z,1.80
2022-10-05T16:54:48.977Z,2.03
2022-10-05T16:57:22.566Z,1.70
2022-10-05T17:00:17.422Z,1.85
2022-10-05T17:03:10.281Z,1.80
2022-10-05T17:06:01.685Z,1.88
2022-10-05T17:08:46.604Z,1.75
2022-10-05T17:11:22.206Z,1.65
2022-10-05T17:14:15.189Z,1.87
2022-10-05T17:16:44.688Z,2.10
2022-10-05T17:19:11.264Z,1.38
2022-10-05T17:22:00.782Z,1.80
2022-10-05T17:25:02.348Z,1.48
2022-10-05T17:27:31.950Z,1.45
2022-10-05T17:30:23.576Z,1.40
2022-10-05T17:32:58.290Z,1.13
2022-10-05T17:35:50.877Z,1.50
2022-10-05T17:38:35.427Z,1.52
2022-10-05T17:41:20.172Z,1.20
2022-10-05T17:44:06.958Z,1.38
2022-10-05T17:46:39.674Z,1.38
2022-10-05T17:49:34.942Z,1.35
2022-10-05T17:52:23.718Z,1.20
2022-10-05T17:55:09.028Z,1.52
2022-10-05T17:57:40.291Z,1.30
2022-10-05T18:00:33.629Z,1.20
2022-10-05T18:03:00.333Z,1.50
2022-10-05T18:05:30.835Z,1.60
2022-10-05T18:08:12.999Z,1.35
2022-10-05T18:11:08.398Z,1.40
2022-10-05T18:13:41.639Z,1.58
2022-10-05T18:16:10.322Z,1.60
2022-10-05T18:18:44.475Z,1.70
2022-10-05T18:21:14.002Z,1.40
2022-10-05T18:24:00.737Z,1.95
2022-10-05T18:26:41.650Z,1.92
2022-10-05T18:29:48.686Z,2.20
2022-10-05T18:32:47.512Z,2.05
2022-10-05T18:35:22.536Z,2.05
2022-10-05T18:38:28.000Z,3.00
2022-10-05T18:41:09.086Z,3.70
2022-10-05T18:43:46.032Z,1.90
2022-10-05T18:46:39.858Z,2.28
2022-10-05T18:49:28.786Z,2.60
2022-10-05T18:52:09.556Z,3.47
2022-10-05T18:55:02.514Z,2.25
2022-10-05T18:57:38.653Z,1.65
2022-10-05T19:00:25.423Z,2.03
2022-10-05T19:02:57.233Z,1.73
2022-10-05T19:05:56.400Z,1.88
2022-10-05T19:08:32.970Z,1.80
2022-10-05T19:13:58.250Z,1.95
2022-10-05T19:16:24.837Z,2.25
2022-10-05T19:19:29.383Z,1.95
2022-10-05T19:22:03.612Z,1.90
2022-10-05T19:24:48.232Z,1.58
2022-10-05T19:27:36.435Z,1.70
2022-10-05T19:30:18.234Z,2.17
2022-10-05T19:33:22.615Z,1.63
2022-10-05T19:35:58.307Z,1.70
2022-10-05T19:38:46.964Z,1.67
2022-10-05T19:41:22.550Z,1.90
2022-10-05T19:44:09.452Z,1.80
2022-10-05T19:46:56.282Z,1.85
2022-10-05T19:49:37.691Z,2.45
2022-10-05T19:52:11.960Z,1.83
2022-10-05T19:54:39.234Z,1.50
2022-10-05T19:57:17.875Z,1.40
2022-10-05T19:59:48.368Z,1.70
2022-10-05T20:02:17.072Z,1.35
2022-10-05T20:04:47.492Z,1.70
2022-10-05T20:07:17.440Z,1.90
2022-10-05T20:09:59.305Z,1.60
2022-10-05T20:12:50.609Z,1.60
2022-10-05T20:15:41.837Z,1.77
2022-10-05T20:18:58.348Z,2.45
2022-10-05T20:21:49.809Z,1.77
2022-10-05T20:24:26.715Z,1.40
2022-10-05T20:27:16.411Z,1.92
2022-10-05T20:29:44.917Z,2.08
2022-10-05T20:32:14.167Z,1.60
2022-10-05T20:34:47.995Z,1.42
2022-10-05T20:37:16.849Z,1.77
2022-10-05T20:39:44.041Z,1.60
2022-10-05T20:42:11.287Z,1.65
2022-10-05T20:44:38.117Z,1.70
2022-10-05T20:47:09.089Z,1.77
2022-10-05T20:49:37.251Z,1.77
2022-10-05T20:52:06.158Z,1.70
2022-10-05T20:54:32.811Z,2.20
2022-10-05T20:56:59.518Z,2.97
2022-10-05T20:59:26.707Z,2.10
2022-10-05T21:01:53.623Z,2.17
2022-10-05T21:04:25.236Z,1.40
2022-10-05T21:06:52.975Z,1.58
2022-10-05T21:09:21.511Z,1.58
2022-10-05T21:11:55.476Z,0.88
2022-10-05T21:14:23.705Z,0.52
2022-10-05T21:16:51.095Z,0.60
2022-10-05T21:19:17.723Z,0.50
2022-10-05T21:21:45.770Z,0.32
2022-10-05T21:24:14.360Z,0.60
2022-10-05T21:26:42.109Z,0.40
2022-10-05T21:29:12.794Z,0.50
2022-10-05T21:31:40.656Z,0.75
2022-10-05T21:34:07.768Z,0.70
2022-10-05T21:36:34.666Z,0.45
2022-10-05T21:39:02.978Z,0.55
2022-10-05T21:41:29.631Z,0.40
2022-10-05T21:43:56.207Z,0.50
2022-10-05T21:46:26.598Z,0.40
2022-10-05T21:48:54.481Z,0.52
2022-10-05T21:51:23.872Z,0.50
2022-10-05T21:53:55.961Z,0.55
2022-10-05T21:56:27.185Z,0.80
2022-10-05T21:58:53.963Z,0.50
2022-10-05T22:01:22.922Z,0.50
2022-10-05T22:03:49.999Z,0.60
2022-10-05T22:06:16.570Z,0.80
2022-10-05T22:08:43.309Z,0.60
2022-10-05T22:11:15.551Z,0.60
2022-10-05T22:13:50.996Z,0.85
2022-10-05T22:16:20.365Z,0.50
2022-10-05T22:18:49.111Z,0.60
2022-10-05T22:21:16.939Z,0.30
2022-10-05T22:23:45.649Z,0.70
2022-10-05T22:26:16.120Z,0.90
2022-10-05T22:28:44.412Z,0.70
2022-10-05T22:31:12.545Z,0.85
2022-10-05T22:33:40.021Z,0.55
2022-10-05T22:36:07.854Z,0.52
2022-10-05T22:38:34.684Z,0.77
2022-10-05T22:41:01.341Z,0.60
2022-10-05T22:43:28.217Z,0.95
2022-10-05T22:45:56.045Z,0.70
2022-10-05T22:48:22.675Z,0.90
2022-10-05T22:50:49.482Z,0.73
2022-10-05T22:53:16.239Z,1.05
2022-10-05T22:55:42.891Z,0.68
2022-10-05T22:58:09.412Z,0.57
2022-10-05T23:00:57.156Z,0.77
2022-10-05T23:03:22.662Z,0.85
2022-10-05T23:05:58.820Z,0.77
2022-10-05T23:08:25.821Z,0.43
2022-10-05T23:10:52.688Z,0.60
2022-10-05T23:13:19.261Z,0.70
2022-10-05T23:15:45.865Z,0.40
2022-10-05T23:18:12.325Z,0.43
2022-10-05T23:20:40.181Z,0.95
2022-10-05T23:23:06.761Z,0.57
2022-10-05T23:25:33.598Z,0.77
2022-10-05T23:28:02.479Z,0.40
2022-10-05T23:30:29.152Z,0.57
2022-10-05T23:32:55.742Z,0.65
2022-10-05T23:35:22.496Z,0.55
2022-10-05T23:37:49.055Z,0.50
2022-10-05T23:40:15.735Z,0.40
2022-10-05T23:42:42.429Z,0.60
2022-10-05T23:45:11.145Z,0.60
2022-10-05T23:47:38.629Z,0.55
2022-10-05T23:50:08.986Z,0.57
2022-10-05T23:52:36.565Z,0.43
2022-10-05T23:55:04.815Z,0.32
2022-10-05T23:57:31.517Z,1.02
2022-10-05T23:59:58.061Z,0.60
